createdAt,value
2022-11-01T00:02:02.489Z,100184.44
2022-11-01T00:04:30.595Z,100181.28
2022-11-01T00:06:58.770Z,100177.78
2022-11-01T00:09:26.872Z,100177.13
2022-11-01T00:11:54.893Z,100179.13
2022-11-01T00:14:23.301Z,100175.84
2022-11-01T00:16:51.653Z,100183.56
2022-11-01T00:19:21.181Z,100177.28
2022-11-01T00:21:49.277Z,100179.09
2022-11-01T00:24:17.348Z,100172.28
2022-11-01T00:26:45.437Z,100177.56
2022-11-01T00:29:14.303Z,100180.56
2022-11-01T00:31:42.466Z,100178.28
2022-11-01T00:34:10.544Z,100176.94
2022-11-01T00:36:39.970Z,100174.50
2022-11-01T00:39:08.263Z,100176.88
2022-11-01T00:41:36.430Z,100176.88
2022-11-01T00:44:05.142Z,100175.63
2022-11-01T00:46:33.194Z,100171.06
2022-11-01T00:49:01.216Z,100172.66
2022-11-01T00:51:29.479Z,100178.44
2022-11-01T00:53:59.089Z,100175.56
2022-11-01T00:56:27.174Z,100171.88
2022-11-01T00:58:55.323Z,100176.00
2022-11-01T01:01:23.423Z,100170.81
2022-11-01T01:03:53.000Z,100175.56
2022-11-01T01:06:21.067Z,100170.63
2022-11-01T01:08:49.089Z,100169.75
2022-11-01T01:11:19.135Z,100171.25
2022-11-01T01:13:47.215Z,100168.34
2022-11-01T01:16:15.264Z,100177.97
2022-11-01T01:18:43.272Z,100168.41
2022-11-01T01:21:11.503Z,100172.66
2022-11-01T01:23:39.543Z,100169.41
2022-11-01T01:26:08.859Z,100173.16
2022-11-01T01:28:41.968Z,100169.19
2022-11-01T01:31:14.072Z,100168.31
2022-11-01T01:33:42.440Z,100166.81
2022-11-01T01:36:10.740Z,100166.41
2022-11-01T01:38:38.950Z,100170.34
2022-11-01T01:41:25.292Z,100163.22
2022-11-01T01:43:54.764Z,100161.53
2022-11-01T01:46:22.876Z,100157.94
2022-11-01T01:48:56.702Z,100170.66
2022-11-01T01:51:27.649Z,100162.41
2022-11-01T01:53:58.949Z,100168.63
2022-11-01T01:56:32.349Z,100168.63
2022-11-01T01:59:06.459Z,100174.06
2022-11-01T02:01:36.985Z,100181.69
2022-11-01T02:04:08.543Z,100173.75
2022-11-01T02:06:37.730Z,100182.28
2022-11-01T02:09:08.322Z,100179.81
2022-11-01T02:11:36.641Z,100187.88
2022-11-01T02:14:06.337Z,100188.56
2022-11-01T02:16:46.098Z,100189.91
2022-11-01T02:20:01.464Z,100193.00
2022-11-01T02:22:50.385Z,100192.84
2022-11-01T02:25:50.597Z,100189.13
2022-11-01T02:28:40.155Z,100202.16
2022-11-01T02:31:26.746Z,100203.63
2022-11-01T02:33:59.141Z,100201.94
2022-11-01T02:36:34.088Z,100191.75
2022-11-01T02:39:09.472Z,100206.34
2022-11-01T02:41:45.705Z,100200.38
2022-11-01T02:44:18.451Z,100206.00
2022-11-01T02:47:05.313Z,100207.22
2022-11-01T02:49:39.449Z,100210.25
2022-11-01T02:52:11.421Z,100214.41
2022-11-01T02:54:41.147Z,100205.81
2022-11-01T02:57:30.126Z,100209.72
2022-11-01T03:00:04.527Z,100209.84
2022-11-01T03:02:43.280Z,100210.44
2022-11-01T03:05:18.764Z,100212.38
2022-11-01T03:07:52.235Z,100211.81
2022-11-01T03:10:22.735Z,100216.69
2022-11-01T03:13:00.144Z,100212.97
2022-11-01T03:15:33.258Z,100211.81
2022-11-01T03:18:05.903Z,100211.94
2022-11-01T03:20:48.512Z,100212.03
2022-11-01T03:23:20.982Z,100207.06
2022-11-01T03:25:53.578Z,100204.00
2022-11-01T03:28:25.059Z,100203.44
2022-11-01T03:30:57.993Z,100205.81
2022-11-01T03:33:28.680Z,100211.13
2022-11-01T03:36:04.749Z,100217.47
2022-11-01T03:38:38.633Z,100216.56
2022-11-01T03:41:11.444Z,100222.00
2022-11-01T03:43:40.000Z,100223.25
2022-11-01T03:46:09.196Z,100227.78
2022-11-01T03:48:40.630Z,100223.94
2022-11-01T03:51:10.179Z,100219.75
2022-11-01T03:53:38.290Z,100220.88
2022-11-01T03:56:06.702Z,100225.53
2022-11-01T03:58:44.120Z,100225.41
2022-11-01T04:01:13.888Z,100228.81
2022-11-01T04:03:42.476Z,100219.22
2022-11-01T04:06:12.316Z,100218.38
2022-11-01T04:08:40.371Z,100216.63
2022-11-01T04:11:08.626Z,100224.28
2022-11-01T04:13:36.643Z,100218.41
2022-11-01T04:16:22.061Z,100217.84
2022-11-01T04:19:09.675Z,100222.25
2022-11-01T04:21:39.802Z,100218.75
2022-11-01T04:24:08.574Z,100216.81
2022-11-01T04:26:36.928Z,100217.19
2022-11-01T04:29:05.094Z,100216.59
2022-11-01T04:31:35.190Z,100226.44
2022-11-01T04:34:06.605Z,100223.16
2022-11-01T04:36:34.931Z,100219.53
2022-11-01T04:39:04.733Z,100228.56
2022-11-01T04:41:33.305Z,100218.28
2022-11-01T04:44:01.400Z,100223.72
2022-11-01T04:46:31.851Z,100221.13
2022-11-01T04:48:59.909Z,100230.50
2022-11-01T04:51:27.996Z,100229.50
2022-11-01T04:53:56.021Z,100226.78
2022-11-01T04:56:25.495Z,100235.81
2022-11-01T04:58:53.602Z,100226.44
2022-11-01T05:01:21.738Z,100236.16
2022-11-01T05:03:50.464Z,100233.78
2022-11-01T05:06:18.641Z,100237.50
2022-11-01T05:08:46.646Z,100239.53
2022-11-01T05:11:14.766Z,100242.16
2022-11-01T05:13:44.143Z,100257.28
2022-11-01T05:16:19.387Z,100249.16
2022-11-01T05:18:48.662Z,100251.66
2022-11-01T05:21:16.792Z,100246.91
2022-11-01T05:23:44.822Z,100251.22
2022-11-01T05:26:12.820Z,100248.50
2022-11-01T05:28:43.516Z,100248.16
2022-11-01T05:31:12.147Z,100260.47
2022-11-01T05:33:40.499Z,100266.56
2022-11-01T05:36:09.392Z,100264.22
2022-11-01T05:38:37.453Z,100256.53
2022-11-01T05:41:06.087Z,100260.25
2022-11-01T05:43:34.254Z,100268.28
2022-11-01T05:46:06.518Z,100269.31
2022-11-01T05:48:34.766Z,100273.72
2022-11-01T05:51:02.819Z,100277.34
2022-11-01T05:53:30.958Z,100278.50
2022-11-01T05:55:59.801Z,100278.38
2022-11-01T05:58:30.664Z,100273.97
2022-11-01T06:00:59.840Z,100284.59
2022-11-01T06:03:29.641Z,100284.06
2022-11-01T06:05:57.801Z,100283.91
2022-11-01T06:08:26.262Z,100282.66
2022-11-01T06:10:54.646Z,100288.66
2022-11-01T06:13:22.816Z,100291.28
2022-11-01T06:15:51.550Z,100285.19
2022-11-01T06:18:20.584Z,100284.59
2022-11-01T06:20:50.244Z,100290.13
2022-11-01T06:23:18.431Z,100295.59
2022-11-01T06:25:46.662Z,100287.63
2022-11-01T06:28:14.677Z,100293.88
2022-11-01T06:30:44.140Z,100293.16
2022-11-01T06:33:12.259Z,100293.34
2022-11-01T06:52:59.632Z,100294.63
2022-11-01T06:55:28.919Z,100296.38
2022-11-01T06:57:58.648Z,100295.00
2022-11-01T07:00:30.045Z,100291.22
2022-11-01T07:03:02.657Z,100300.00
2022-11-01T07:05:35.960Z,100285.44
2022-11-01T07:08:08.835Z,100289.63
2022-11-01T07:10:38.528Z,100291.25
2022-11-01T07:13:08.939Z,100281.34
2022-11-01T07:15:37.119Z,100292.41
2022-11-01T07:18:08.397Z,100280.63
2022-11-01T07:20:42.056Z,100285.16
2022-11-01T07:23:14.275Z,100285.41
2022-11-01T07:25:43.560Z,100295.78
2022-11-01T07:28:12.565Z,100294.34
2022-11-01T07:30:41.029Z,100291.13
2022-11-01T07:33:10.386Z,100285.41
2022-11-01T07:35:39.463Z,100295.63
2022-11-01T07:38:16.295Z,100286.69
2022-11-01T07:40:49.684Z,100283.69
2022-11-01T07:43:19.344Z,100289.81
2022-11-01T07:45:48.127Z,100287.72
2022-11-01T07:48:18.132Z,100291.00
2022-11-01T07:50:47.147Z,100289.25
2022-11-01T07:53:18.282Z,100297.63
2022-11-01T07:55:47.477Z,100287.28
2022-11-01T07:58:16.858Z,100288.00
2022-11-01T08:00:45.874Z,100288.84
2022-11-01T08:03:15.529Z,100290.84
2022-11-01T08:05:44.875Z,100279.28
2022-11-01T08:08:13.343Z,100281.16
2022-11-01T08:10:44.183Z,100281.25
2022-11-01T08:13:18.110Z,100279.41
2022-11-01T08:15:47.119Z,100278.00
2022-11-01T08:18:15.220Z,100273.06
2022-11-01T08:20:43.711Z,100278.56
2022-11-01T08:23:12.884Z,100272.75
2022-11-01T08:25:42.769Z,100263.47
2022-11-01T08:28:15.460Z,100266.03
2022-11-01T08:30:45.875Z,100266.22
2022-11-01T08:33:13.995Z,100262.78
2022-11-01T08:35:47.342Z,100270.31
2022-11-01T08:38:18.016Z,100263.78
2022-11-01T08:40:49.306Z,100256.88
2022-11-01T08:43:17.864Z,100264.75
2022-11-01T08:45:45.977Z,100245.59
2022-11-01T08:48:14.519Z,100251.56
2022-11-01T08:50:44.199Z,100255.22
2022-11-01T08:53:14.121Z,100249.78
2022-11-01T08:55:42.874Z,100246.28
2022-11-01T08:58:12.968Z,100247.91
2022-11-01T09:00:41.024Z,100239.28
2022-11-01T09:03:09.033Z,100243.22
2022-11-01T09:05:37.515Z,100236.28
2022-11-01T09:08:06.546Z,100246.53
2022-11-01T09:10:35.145Z,100244.31
2022-11-01T09:13:03.537Z,100232.56
2022-11-01T09:15:35.212Z,100231.78
2022-11-01T09:18:07.374Z,100231.44
2022-11-01T09:20:35.687Z,100235.06
2022-11-01T09:23:04.270Z,100231.16
2022-11-01T09:25:33.083Z,100225.28
2022-11-01T09:28:01.274Z,100227.25
2022-11-01T09:30:30.451Z,100228.06
2022-11-01T09:33:00.349Z,100222.19
2022-11-01T09:35:29.988Z,100220.28
2022-11-01T09:38:02.014Z,100211.63
2022-11-01T09:40:39.240Z,100217.13
2022-11-01T09:43:10.678Z,100212.84
2022-11-01T09:45:40.356Z,100201.44
2022-11-01T09:48:14.913Z,100204.56
2022-11-01T09:50:45.132Z,100199.84
2022-11-01T09:53:19.760Z,100202.22
2022-11-01T09:55:59.604Z,100197.47
2022-11-01T09:58:38.735Z,100193.94
2022-11-01T10:01:20.729Z,100184.47
2022-11-01T10:04:10.248Z,100185.59
2022-11-01T10:06:43.950Z,100175.41
2022-11-01T10:09:29.820Z,100175.00
2022-11-01T10:12:10.302Z,100177.72
2022-11-01T10:15:01.491Z,100180.03
2022-11-01T10:17:47.071Z,100171.75
2022-11-01T10:20:22.999Z,100170.53
2022-11-01T10:22:51.827Z,100166.53
2022-11-01T10:25:23.564Z,100162.97
2022-11-01T10:28:00.900Z,100161.72
2022-11-01T10:30:34.237Z,100155.78
2022-11-01T10:33:13.641Z,100154.94
2022-11-01T10:35:46.652Z,100154.94
2022-11-01T10:38:28.092Z,100148.59
2022-11-01T10:41:21.630Z,100135.03
2022-11-01T10:43:54.369Z,100134.66
2022-11-01T10:46:26.803Z,100129.03
2022-11-01T10:48:58.990Z,100123.38
2022-11-01T10:51:32.987Z,100120.47
2022-11-01T10:54:04.990Z,100118.03
2022-11-01T11:16:56.162Z,100089.47
2022-11-01T11:19:33.556Z,100079.97
2022-11-01T11:22:06.785Z,100079.97
2022-11-01T11:24:36.598Z,100076.06
2022-11-01T11:27:13.031Z,100073.72
2022-11-01T11:29:48.706Z,100069.63
2022-11-01T11:32:21.871Z,100074.22
2022-11-01T11:34:56.698Z,100056.25
2022-11-01T11:37:26.340Z,100064.13
2022-11-01T11:40:19.552Z,100061.81
2022-11-01T11:42:49.492Z,100064.53
2022-11-01T11:45:21.394Z,100055.25
2022-11-01T11:47:52.019Z,100051.28
2022-11-01T11:50:32.647Z,100053.69
2022-11-01T11:53:06.490Z,100048.16
2022-11-01T11:55:42.052Z,100046.16
2022-11-01T11:58:24.795Z,100050.44
2022-11-01T12:00:59.356Z,100046.84
2022-11-01T12:03:29.695Z,100044.25
2022-11-01T12:06:01.535Z,100036.25
2022-11-01T12:08:38.387Z,100038.59
2022-11-01T12:11:07.970Z,100031.56
2022-11-01T12:13:41.578Z,100034.81
2022-11-01T12:16:21.699Z,100035.25
2022-11-01T12:18:54.103Z,100026.88
2022-11-01T12:21:28.651Z,100033.16
2022-11-01T12:24:04.775Z,100026.63
2022-11-01T12:26:36.250Z,100025.78
2022-11-01T12:29:19.284Z,100020.84
2022-11-01T12:31:51.280Z,100022.72
2022-11-01T12:34:27.040Z,100019.97
2022-11-01T12:36:58.840Z,100016.44
2022-11-01T12:39:41.761Z,100020.97
2022-11-01T12:42:12.826Z,100016.75
2022-11-01T12:44:44.193Z,100018.88
2022-11-01T12:47:20.897Z,100012.25
2022-11-01T12:49:56.326Z,100024.13
2022-11-01T12:52:33.667Z,100020.50
2022-11-01T12:55:08.309Z,100013.34
2022-11-01T12:57:37.069Z,100015.38
2022-11-01T13:00:06.768Z,100016.59
2022-11-01T13:03:00.392Z,100015.91
2022-11-01T13:05:40.404Z,100014.81
2022-11-01T13:08:18.739Z,100017.94
2022-11-01T13:10:49.801Z,100010.63
2022-11-01T13:13:25.064Z,100003.09
2022-11-01T13:16:04.712Z,100009.34
2022-11-01T13:18:45.674Z,100010.53
2022-11-01T13:21:34.631Z,100004.94
2022-11-01T13:24:13.828Z,100000.31
2022-11-01T13:26:46.780Z,100006.22
2022-11-01T13:29:20.428Z,100002.31
2022-11-01T13:31:59.192Z,100003.53
2022-11-01T13:34:40.791Z,100001.03
2022-11-01T13:37:20.216Z,100000.19
2022-11-01T13:40:04.008Z,100001.75
2022-11-01T13:42:38.028Z,100001.03
2022-11-01T13:45:29.318Z,99996.66
2022-11-01T13:48:07.761Z,99997.41
2022-11-01T13:51:07.894Z,100000.75
2022-11-01T13:53:43.114Z,99994.84
2022-11-01T13:56:19.103Z,99995.34
2022-11-01T13:58:47.566Z,100001.03
2022-11-01T14:01:32.812Z,99988.13
2022-11-01T14:04:39.046Z,99992.31
2022-11-01T14:07:15.710Z,99992.03
2022-11-01T14:09:47.288Z,99989.41
2022-11-01T14:12:34.764Z,99991.38
2022-11-01T14:15:27.020Z,99983.09
2022-11-01T14:18:07.870Z,99982.38
2022-11-01T14:20:47.521Z,99993.53
2022-11-01T14:23:54.356Z,99988.41
2022-11-01T14:27:02.397Z,99990.91
2022-11-01T14:29:31.414Z,99991.75
2022-11-01T14:32:00.489Z,99985.50
2022-11-01T14:34:36.221Z,99984.78
2022-11-01T14:37:15.088Z,99982.13
2022-11-01T14:39:49.704Z,99973.91
2022-11-01T14:42:26.509Z,99975.22
2022-11-01T14:44:58.704Z,99974.13
2022-11-01T14:47:36.597Z,99981.25
2022-11-01T14:50:15.481Z,99974.25
2022-11-01T14:52:48.451Z,99965.19
2022-11-01T14:55:21.724Z,99966.88
2022-11-01T14:57:51.902Z,99962.34
2022-11-01T15:00:31.767Z,99965.13
2022-11-01T15:03:02.647Z,99965.22
2022-11-01T15:05:31.268Z,99964.91
2022-11-01T15:08:00.699Z,99963.56
2022-11-01T15:10:29.825Z,99966.50
2022-11-01T15:13:02.448Z,99965.94
2022-11-01T15:15:34.446Z,99960.66
2022-11-01T15:18:06.344Z,99968.97
2022-11-01T15:20:39.917Z,99971.00
2022-11-01T15:23:12.027Z,99970.28
2022-11-01T15:25:40.948Z,99963.69
2022-11-01T15:28:21.202Z,99961.38
2022-11-01T15:30:56.291Z,99966.97
2022-11-01T15:33:25.982Z,99968.69
2022-11-01T15:35:55.974Z,99970.50
2022-11-01T15:38:24.295Z,99966.38
2022-11-01T15:40:53.321Z,99968.81
2022-11-01T15:43:26.870Z,99969.28
2022-11-01T15:45:57.738Z,99974.00
2022-11-01T15:48:30.995Z,99971.28
2022-11-01T15:51:02.906Z,99976.91
2022-11-01T15:53:34.820Z,99983.66
2022-11-01T15:56:08.388Z,99976.63
2022-11-01T15:58:41.886Z,99982.19
2022-11-01T16:01:15.639Z,99983.75
2022-11-01T16:03:48.451Z,99992.84
2022-11-01T16:06:21.250Z,99985.84
2022-11-01T16:08:56.160Z,99991.03
2022-11-01T16:11:29.126Z,99994.25
2022-11-01T16:14:01.806Z,99992.72
2022-11-01T16:16:31.670Z,99999.47
2022-11-01T16:19:00.253Z,100001.44
2022-11-01T16:21:30.868Z,99997.13
2022-11-01T16:24:06.805Z,100007.38
2022-11-01T16:26:53.151Z,100006.16
2022-11-01T16:29:39.146Z,100010.13
2022-11-01T16:32:10.228Z,100010.94
2022-11-01T16:34:38.509Z,100017.69
2022-11-01T16:37:20.127Z,100009.09
2022-11-01T16:39:48.438Z,100016.59
2022-11-01T16:42:17.399Z,100016.66
2022-11-01T16:44:47.958Z,100013.53
2022-11-01T16:47:18.063Z,100017.84
2022-11-01T16:49:51.256Z,100020.22
2022-11-01T16:52:19.884Z,100024.13
2022-11-01T16:54:50.956Z,100024.56
2022-11-01T16:57:25.134Z,100026.97
2022-11-01T16:59:56.077Z,100025.00
2022-11-01T17:02:28.093Z,100021.13
2022-11-01T17:05:04.215Z,100019.19
2022-11-01T17:07:32.384Z,100033.34
2022-11-01T17:10:00.546Z,100027.09
2022-11-01T17:12:28.665Z,100031.81
2022-11-01T17:14:58.272Z,100031.84
2022-11-01T17:17:28.104Z,100027.94
2022-11-01T17:20:04.194Z,100036.56
2022-11-01T17:22:36.099Z,100031.09
2022-11-01T17:25:05.466Z,100029.13
2022-11-01T17:27:33.818Z,100031.47
2022-11-01T17:30:03.386Z,100031.09
2022-11-01T17:32:31.441Z,100035.41
2022-11-01T17:34:59.638Z,100037.34
2022-11-01T17:37:31.539Z,100038.94
2022-11-01T17:40:00.273Z,100042.06
2022-11-01T17:42:29.464Z,100049.53
2022-11-01T17:44:57.654Z,100048.31
2022-11-01T17:47:27.468Z,100052.66
2022-11-01T17:49:55.539Z,100049.13
2022-11-01T17:52:23.642Z,100062.84
2022-11-01T17:54:51.895Z,100059.31
2022-11-01T17:57:20.049Z,100053.00
2022-11-01T17:59:48.624Z,100062.78
2022-11-01T18:02:16.829Z,100060.78
2022-11-01T18:04:46.467Z,100052.13
2022-11-01T18:07:15.761Z,100061.50
2022-11-01T18:09:43.920Z,100062.25
2022-11-01T18:12:18.352Z,100062.25
2022-11-01T18:14:56.601Z,100056.75
2022-11-01T18:17:38.804Z,100063.75
2022-11-01T18:20:19.484Z,100060.59
2022-11-01T18:22:53.358Z,100054.69
2022-11-01T18:25:29.253Z,100060.56
2022-11-01T18:28:01.103Z,100061.38
2022-11-01T18:30:29.492Z,100066.84
2022-11-01T18:33:03.877Z,100064.09
2022-11-01T18:35:39.431Z,100064.03
2022-11-01T18:38:21.889Z,100063.66
2022-11-01T18:40:57.463Z,100068.72
2022-11-01T18:43:27.002Z,100074.16
2022-11-01T18:46:23.448Z,100071.41
2022-11-01T18:48:44.636Z,100072.94
2022-11-01T18:51:20.740Z,100072.88
2022-11-01T18:53:54.409Z,100076.75
2022-11-01T18:56:25.508Z,100071.66
2022-11-01T18:58:55.583Z,100077.44
2022-11-01T19:01:32.856Z,100075.84
2022-11-01T19:04:07.497Z,100084.03
2022-11-01T19:06:37.175Z,100081.63
2022-11-01T19:09:18.092Z,100081.97
2022-11-01T19:11:46.596Z,100080.75
2022-11-01T19:14:23.574Z,100084.97
2022-11-01T19:16:51.761Z,100070.47
2022-11-01T19:19:21.682Z,100081.03
2022-11-01T19:21:51.215Z,100071.72
2022-11-01T19:24:31.586Z,100075.97
2022-11-01T19:27:00.328Z,100075.88
2022-11-01T19:29:32.583Z,100080.13
2022-11-01T19:32:03.940Z,100081.63
2022-11-01T19:34:36.830Z,100089.38
2022-11-01T19:37:20.019Z,100089.00
2022-11-01T19:39:49.286Z,100103.41
2022-11-01T19:42:26.828Z,100091.63
2022-11-01T19:44:59.354Z,100093.03
2022-11-01T19:47:41.185Z,100101.00
2022-11-01T19:50:22.085Z,100099.31
2022-11-01T19:52:54.177Z,100096.09
2022-11-01T19:55:36.243Z,100092.00
2022-11-01T19:58:05.088Z,100095.78
2022-11-01T20:00:34.726Z,100098.41
2022-11-01T20:03:03.306Z,100103.78
2022-11-01T20:05:34.887Z,100104.75
2022-11-01T20:08:16.071Z,100103.44
2022-11-01T20:10:44.964Z,100109.19
2022-11-01T20:13:13.603Z,100102.06
2022-11-01T20:15:43.412Z,100098.44
2022-11-01T20:18:11.794Z,100103.09
2022-11-01T20:20:43.864Z,100109.31
2022-11-01T20:23:26.447Z,100117.06
2022-11-01T20:25:55.267Z,100112.34
2022-11-01T20:28:23.348Z,100113.13
2022-11-01T20:30:51.423Z,100119.44
2022-11-01T20:33:19.520Z,100118.22
2022-11-01T20:35:47.626Z,100111.53
2022-11-01T20:38:17.289Z,100110.59
2022-11-01T20:40:46.105Z,100111.34
2022-11-01T20:43:14.226Z,100112.41
2022-11-01T20:45:42.609Z,100108.41
2022-11-01T20:48:10.805Z,100109.16
2022-11-01T20:50:38.866Z,100105.59
2022-11-01T20:53:07.226Z,100107.81
2022-11-01T20:55:36.922Z,100112.06
2022-11-01T20:58:05.330Z,100105.72
2022-11-01T21:00:33.743Z,100107.25
2022-11-01T21:03:05.584Z,100109.53
2022-11-01T21:05:36.808Z,100115.38
2022-11-01T21:08:16.425Z,100104.88
2022-11-01T21:10:45.956Z,100110.69
2022-11-01T21:13:24.021Z,100113.56
2022-11-01T21:15:52.960Z,100109.63
2022-11-01T21:18:35.273Z,100111.13
2022-11-01T21:21:27.392Z,100107.97
2022-11-01T21:23:55.575Z,100109.13
2022-11-01T21:26:27.311Z,100098.56
2022-11-01T21:28:57.065Z,100103.06
2022-11-01T21:31:28.141Z,100103.78
2022-11-01T21:33:58.040Z,100104.50
2022-11-01T21:36:37.433Z,100102.50
2022-11-01T21:39:12.669Z,100100.56
2022-11-01T21:41:45.322Z,100104.06
2022-11-01T21:44:21.809Z,100095.50
2022-11-01T21:46:51.972Z,100100.75
2022-11-01T21:49:31.349Z,100090.91
2022-11-01T21:52:01.535Z,100088.41
2022-11-01T21:54:31.838Z,100091.41
2022-11-01T21:57:01.648Z,100098.66
2022-11-01T21:59:30.112Z,100088.41
2022-11-01T22:02:01.359Z,100089.50
2022-11-01T22:04:31.060Z,100088.63
2022-11-01T22:06:59.467Z,100094.09
2022-11-01T22:09:28.024Z,100099.88
2022-11-01T22:11:56.712Z,100095.25
2022-11-01T22:14:26.256Z,100099.53
2022-11-01T22:16:54.426Z,100102.78
2022-11-01T22:19:22.538Z,100094.53
2022-11-01T22:21:50.634Z,100096.38
2022-11-01T22:24:18.760Z,100090.06
2022-11-01T22:26:46.879Z,100095.66
2022-11-01T22:29:14.900Z,100097.31
2022-11-01T22:31:44.487Z,100086.75
2022-11-01T22:34:12.550Z,100093.31
2022-11-01T22:36:42.702Z,100087.75
2022-11-01T22:39:18.450Z,100087.69
2022-11-01T22:41:46.527Z,100086.84
2022-11-01T22:44:17.503Z,100083.63
2022-11-01T22:46:55.088Z,100080.38
2022-11-01T22:49:27.831Z,100079.50
2022-11-01T22:51:58.719Z,100075.94
2022-11-01T22:54:38.665Z,100074.59
2022-11-01T22:57:15.943Z,100072.94
2022-11-01T22:59:47.194Z,100074.44
2022-11-01T23:02:28.661Z,100066.88
2022-11-01T23:05:03.894Z,100066.38
2022-11-01T23:07:35.345Z,100063.59
2022-11-01T23:10:06.370Z,100058.84
2022-11-01T23:12:54.738Z,100058.84
2022-11-01T23:15:29.212Z,100052.56
2022-11-01T23:18:03.301Z,100051.22
2022-11-01T23:20:31.494Z,100053.16
2022-11-01T23:23:01.589Z,100059.66
2022-11-01T23:25:30.376Z,100062.69
2022-11-01T23:27:58.406Z,100060.72
2022-11-01T23:30:26.584Z,100057.56
2022-11-01T23:32:54.621Z,100062.56
2022-11-01T23:35:24.098Z,100058.28
2022-11-01T23:37:53.910Z,100048.88
2022-11-01T23:40:23.201Z,100053.47
2022-11-01T23:42:51.732Z,100058.38
2022-11-01T23:45:29.816Z,100055.56
2022-11-01T23:47:58.770Z,100059.69
2022-11-01T23:50:32.183Z,100060.41
2022-11-01T23:53:03.194Z,100065.41
2022-11-01T23:55:34.751Z,100060.66
2022-11-01T23:58:05.184Z,100055.59
